Time;durP1;ratioP1;P1;durP2;ratioP2;P2;SDS_P1;SDS_P2;PMS_P1;PMS_P2;Temp;Humidity;BMP_temperature;BMP_pressure;BME280_temperature;BME280_humidity;BME280_pressure;Samples;Min_cycle;Max_cycle;Signal;HPM_P1;HPM_P2
2023/08/07 00:00:31;;;;;;;6.63;2.17;;;10.90;99.90;;;;;;5052197;28;20021;-72
2023/08/07 00:02:57;;;;;;;5.47;2.08;;;10.90;99.90;;;;;;5054279;28;20025;-77
2023/08/07 00:05:23;;;;;;;3.70;2.05;;;10.90;99.90;;;;;;5053676;28;20446;-76
2023/08/07 00:07:49;;;;;;;6.88;2.10;;;10.90;99.90;;;;;;5054002;28;20024;-76
2023/08/07 00:10:14;;;;;;;7.13;2.50;;;10.90;99.90;;;;;;5053361;28;20449;-76
2023/08/07 00:12:40;;;;;;;5.30;2.10;;;10.90;99.90;;;;;;5052717;28;20032;-78
2023/08/07 00:15:06;;;;;;;6.03;2.53;;;10.90;99.90;;;;;;5053287;28;20033;-75
2023/08/07 00:17:32;;;;;;;9.80;2.70;;;10.90;99.90;;;;;;5053674;28;20025;-77
2023/08/07 00:19:58;;;;;;;4.55;2.28;;;10.90;99.90;;;;;;5053577;28;20037;-75
2023/08/07 00:22:25;;;;;;;5.95;2.50;;;10.90;99.90;;;;;;5053377;28;20028;-72
2023/08/07 00:24:50;;;;;;;10.35;3.10;;;10.90;99.90;;;;;;5053875;28;20032;-76
2023/08/07 00:27:16;;;;;;;7.22;2.55;;;10.90;99.90;;;;;;5053632;28;20025;-75
2023/08/07 00:29:42;;;;;;;6.18;2.60;;;10.90;99.90;;;;;;5052499;28;20020;-75
2023/08/07 00:32:08;;;;;;;8.48;2.78;;;10.90;99.90;;;;;;5053206;28;20099;-77
2023/08/07 00:34:34;;;;;;;4.68;2.30;;;10.90;99.90;;;;;;5053163;28;20025;-79
2023/08/07 00:37:00;;;;;;;7.97;2.47;;;10.90;99.90;;;;;;5053257;28;20355;-78
2023/08/07 00:39:25;;;;;;;10.15;2.70;;;10.80;99.90;;;;;;5055280;28;20123;-73
2023/08/07 00:41:51;;;;;;;7.45;2.50;;;10.80;99.90;;;;;;5057919;28;20341;-70
2023/08/07 00:44:17;;;;;;;6.50;2.53;;;10.80;99.90;;;;;;5057317;28;20021;-74
2023/08/07 00:46:43;;;;;;;8.13;2.55;;;10.80;99.90;;;;;;5055647;28;20028;-77
2023/08/07 00:49:11;;;;;;;6.35;2.65;;;10.80;99.90;;;;;;5056650;28;20044;-75
2023/08/07 00:51:39;;;;;;;6.30;2.72;;;10.80;99.90;;;;;;5056835;28;20025;-80
2023/08/07 00:54:06;;;;;;;5.80;2.80;;;10.80;99.90;;;;;;5057285;28;20056;-75
2023/08/07 00:56:32;;;;;;;5.35;2.47;;;10.70;99.90;;;;;;5056832;28;20100;-78
2023/08/07 00:59:01;;;;;;;8.50;2.60;;;10.80;99.90;;;;;;5056797;28;20027;-78
2023/08/07 01:01:27;;;;;;;6.28;2.95;;;10.80;99.90;;;;;;5056440;28;20420;-77
2023/08/07 01:03:54;;;;;;;8.68;2.85;;;10.80;99.90;;;;;;5056942;28;20013;-72
2023/08/07 01:06:20;;;;;;;7.60;3.08;;;10.80;99.90;;;;;;5056527;28;20438;-72
2023/08/07 01:08:46;;;;;;;8.10;2.78;;;10.80;99.90;;;;;;5057032;28;20032;-76
2023/08/07 01:11:18;;;;;;;6.05;2.60;;;10.70;99.90;;;;;;5057032;28;20438;-76
2023/08/07 01:14:13;;;;;;;9.85;2.67;;;10.70;99.90;;;;;;5055092;28;20078;-76
2023/08/07 01:16:56;;;;;;;10.88;3.22;;;10.80;99.90;;;;;;5055103;28;20477;-75
2023/08/07 01:19:29;;;;;;;12.43;3.00;;;10.70;99.90;;;;;;5057017;28;20051;-77
2023/08/07 01:22:15;;;;;;;6.68;2.70;;;10.70;99.90;;;;;;5056393;28;20029;-76
2023/08/07 01:24:43;;;;;;;8.13;2.65;;;10.70;99.90;;;;;;5056340;28;20021;-77
2023/08/07 01:27:18;;;;;;;8.57;2.85;;;10.70;99.90;;;;;;5056201;28;20031;-78
2023/08/07 01:30:08;;;;;;;5.55;2.63;;;10.80;99.90;;;;;;5056156;28;20497;-73
2023/08/07 01:32:40;;;;;;;18.80;3.20;;;10.70;99.90;;;;;;5056329;28;20048;-75
2023/08/07 01:35:06;;;;;;;13.27;3.00;;;10.70;99.90;;;;;;5054836;28;20032;-74
2023/08/07 01:37:36;;;;;;;9.27;3.03;;;10.70;99.90;;;;;;5056175;28;20028;-74
2023/08/07 01:40:03;;;;;;;8.43;2.73;;;10.70;99.90;;;;;;5056265;28;20021;-79
2023/08/07 01:42:29;;;;;;;5.60;2.53;;;10.70;99.90;;;;;;5055862;28;20259;-75
2023/08/07 01:44:55;;;;;;;19.33;3.30;;;10.70;99.90;;;;;;5055603;28;20021;-75
2023/08/07 01:47:20;;;;;;;7.07;2.72;;;10.70;99.90;;;;;;5054453;28;20400;-76
2023/08/07 01:49:46;;;;;;;7.82;3.10;;;10.70;99.90;;;;;;5055506;28;20559;-75
2023/08/07 01:52:12;;;;;;;11.18;2.85;;;10.70;99.90;;;;;;5056528;28;20017;-77
2023/08/07 01:54:38;;;;;;;8.98;3.80;;;10.70;99.90;;;;;;5054891;28;20067;-77
2023/08/07 01:57:04;;;;;;;8.95;3.10;;;10.70;99.90;;;;;;5056162;28;20017;-77
2023/08/07 01:59:30;;;;;;;9.57;3.13;;;10.70;99.90;;;;;;5055573;28;20453;-75
2023/08/07 02:01:55;;;;;;;8.23;2.78;;;10.70;99.90;;;;;;5054344;28;20416;-76
2023/08/07 02:04:21;;;;;;;6.30;2.55;;;10.70;99.90;;;;;;5055854;28;20462;-76
2023/08/07 02:06:47;;;;;;;7.35;2.67;;;10.70;99.90;;;;;;5055319;28;20375;-75
2023/08/07 02:09:12;;;;;;;9.05;2.70;;;10.70;99.90;;;;;;5055354;28;20017;-75
2023/08/07 02:11:38;;;;;;;8.30;2.70;;;10.70;99.90;;;;;;5055360;28;20103;-75
2023/08/07 02:14:03;;;;;;;8.68;2.40;;;10.70;99.90;;;;;;5055789;28;20348;-75
2023/08/07 02:16:29;;;;;;;7.30;2.90;;;10.80;99.90;;;;;;5055218;28;20032;-75
2023/08/07 02:18:55;;;;;;;8.30;3.00;;;10.70;99.90;;;;;;5055278;28;20017;-72
2023/08/07 02:21:20;;;;;;;8.95;2.50;;;10.70;99.90;;;;;;5055782;28;20035;-75
2023/08/07 02:23:46;;;;;;;6.25;2.50;;;10.70;99.90;;;;;;5054928;28;20025;-75
2023/08/07 02:26:11;;;;;;;7.57;2.78;;;10.70;99.90;;;;;;5055338;28;20357;-75
2023/08/07 02:28:37;;;;;;;5.65;2.80;;;10.70;99.90;;;;;;5054967;28;20111;-75
2023/08/07 02:31:03;;;;;;;8.02;2.50;;;10.70;99.90;;;;;;5054964;28;20036;-77
2023/08/07 02:33:30;;;;;;;6.38;2.72;;;10.70;99.90;;;;;;5055188;28;20357;-75
2023/08/07 02:35:56;;;;;;;9.15;2.63;;;10.80;99.90;;;;;;5053481;28;20063;-75
2023/08/07 02:38:22;;;;;;;4.72;2.65;;;10.80;99.90;;;;;;5055047;28;20428;-74
2023/08/07 02:40:47;;;;;;;7.95;2.80;;;10.70;99.90;;;;;;5054521;28;20052;-77
2023/08/07 02:43:13;;;;;;;10.60;2.80;;;10.70;99.90;;;;;;5054555;28;20017;-76
2023/08/07 02:45:39;;;;;;;14.73;2.80;;;10.70;99.90;;;;;;5055208;28;20033;-76
2023/08/07 02:48:05;;;;;;;7.47;2.45;;;10.70;99.90;;;;;;5054400;28;20042;-77
2023/08/07 02:50:32;;;;;;;5.88;2.42;;;10.70;99.90;;;;;;5054901;28;20028;-76
2023/08/07 02:52:58;;;;;;;6.05;2.67;;;10.70;99.90;;;;;;5053243;28;20021;-76
2023/08/07 02:55:24;;;;;;;7.53;2.42;;;10.70;99.90;;;;;;5054539;28;20025;-75
2023/08/07 02:57:51;;;;;;;5.60;2.63;;;10.70;99.90;;;;;;5054882;28;20045;-75
2023/08/07 03:00:17;;;;;;;5.53;2.30;;;10.70;99.90;;;;;;5054585;28;20032;-74
2023/08/07 03:02:42;;;;;;;10.18;2.60;;;10.70;99.90;;;;;;5052125;28;20057;-76
2023/08/07 03:05:08;;;;;;;6.78;2.40;;;10.60;99.90;;;;;;5054235;28;20078;-74
2023/08/07 03:07:34;;;;;;;6.95;2.72;;;10.60;99.90;;;;;;5054450;28;20028;-74
2023/08/07 03:09:59;;;;;;;7.68;2.58;;;10.60;99.90;;;;;;5054134;28;20028;-77
2023/08/07 03:12:25;;;;;;;5.22;2.45;;;10.50;99.90;;;;;;5054090;28;20021;-75
2023/08/07 03:14:51;;;;;;;7.25;2.65;;;10.50;99.90;;;;;;5053941;28;20090;-75
2023/08/07 03:17:16;;;;;;;8.35;2.25;;;10.50;99.90;;;;;;5053851;28;20025;-77
2023/08/07 03:19:43;;;;;;;7.00;2.55;;;10.50;99.90;;;;;;5053942;28;20445;-75
2023/08/07 03:22:09;;;;;;;12.48;3.13;;;10.40;99.90;;;;;;5052652;28;20028;-78
2023/08/07 03:24:34;;;;;;;10.07;3.15;;;10.40;99.90;;;;;;5052574;28;20029;-75
2023/08/07 03:27:00;;;;;;;7.50;2.60;;;10.50;99.90;;;;;;5053817;28;20025;-73
2023/08/07 03:29:26;;;;;;;8.00;2.67;;;10.50;99.90;;;;;;5054086;28;20029;-78
2023/08/07 03:31:52;;;;;;;9.35;2.88;;;10.50;99.90;;;;;;5053495;28;20032;-77
2023/08/07 03:34:17;;;;;;;8.70;2.65;;;10.40;99.90;;;;;;5053386;28;20381;-76
2023/08/07 03:36:44;;;;;;;7.03;2.55;;;10.40;99.90;;;;;;5052332;28;20036;-75
2023/08/07 03:39:11;;;;;;;7.28;2.42;;;10.40;99.90;;;;;;5053578;28;20509;-77
2023/08/07 03:41:37;;;;;;;8.20;2.63;;;10.40;99.90;;;;;;5053588;28;20028;-75
2023/08/07 03:44:03;;;;;;;8.13;2.55;;;10.40;99.90;;;;;;5053606;28;20021;-75
2023/08/07 03:46:29;;;;;;;7.07;2.80;;;10.50;99.90;;;;;;5053977;28;20033;-74
2023/08/07 03:48:54;;;;;;;13.88;2.97;;;10.40;99.90;;;;;;5053314;28;20429;-75
2023/08/07 03:51:20;;;;;;;10.30;2.70;;;10.40;99.90;;;;;;5051908;28;20037;-75
2023/08/07 03:53:45;;;;;;;9.10;3.10;;;10.40;99.90;;;;;;5053426;28;20020;-74
2023/08/07 03:56:11;;;;;;;4.97;2.42;;;10.40;99.90;;;;;;5053308;28;20067;-74
2023/08/07 03:58:37;;;;;;;10.82;2.75;;;10.40;99.90;;;;;;5053134;28;20017;-78
2023/08/07 04:01:02;;;;;;;8.57;2.42;;;10.40;99.90;;;;;;5053050;28;20025;-75
2023/08/07 04:03:28;;;;;;;8.85;2.15;;;10.40;99.90;;;;;;5053431;28;20021;-75
2023/08/07 04:05:54;;;;;;;8.77;2.80;;;10.40;99.90;;;;;;5053306;28;20032;-76
2023/08/07 04:08:21;;;;;;;7.30;2.60;;;10.40;99.90;;;;;;5053873;28;20025;-75
2023/08/07 04:11:01;;;;;;;7.57;2.65;;;10.40;99.90;;;;;;5053251;28;20028;-75
2023/08/07 04:13:27;;;;;;;8.40;2.60;;;10.40;99.90;;;;;;5054372;28;20051;-74
2023/08/07 04:15:53;;;;;;;8.55;4.10;;;10.40;99.90;;;;;;5057318;28;20021;-74
2023/08/07 04:18:19;;;;;;;9.25;2.70;;;10.40;99.90;;;;;;5057206;28;20040;-74
2023/08/07 04:20:54;;;;;;;11.10;3.28;;;10.40;99.90;;;;;;5057593;28;20492;-74
2023/08/07 04:23:20;;;;;;;11.32;2.85;;;10.50;99.90;;;;;;5057575;28;20035;-74
2023/08/07 04:25:49;;;;;;;9.02;2.40;;;10.50;99.90;;;;;;5057195;28;20075;-73
2023/08/07 04:28:15;;;;;;;12.32;2.70;;;10.50;99.90;;;;;;5057174;28;20112;-77
2023/08/07 04:30:41;;;;;;;9.10;2.38;;;10.50;99.90;;;;;;5057167;28;20108;-77
2023/08/07 04:33:08;;;;;;;14.32;2.88;;;10.50;99.90;;;;;;5057129;28;20057;-75
2023/08/07 04:35:33;;;;;;;8.48;2.40;;;10.40;99.90;;;;;;5056924;28;20079;-75
2023/08/07 04:38:00;;;;;;;9.23;2.72;;;10.50;99.90;;;;;;5056714;28;20057;-78
2023/08/07 04:40:26;;;;;;;10.77;2.50;;;10.50;99.90;;;;;;5057065;28;20021;-74
2023/08/07 04:42:51;;;;;;;7.43;2.30;;;10.50;99.90;;;;;;5056893;28;20446;-74
2023/08/07 04:45:17;;;;;;;7.68;2.38;;;10.50;99.90;;;;;;5056811;28;20025;-76
2023/08/07 04:47:43;;;;;;;11.00;2.60;;;10.50;99.90;;;;;;5057091;28;20462;-77
2023/08/07 04:50:09;;;;;;;15.43;2.38;;;10.40;99.90;;;;;;5057113;28;20373;-75
2023/08/07 04:52:35;;;;;;;10.57;2.28;;;10.40;99.90;;;;;;5056663;28;20113;-76
2023/08/07 04:55:01;;;;;;;13.00;2.90;;;10.40;99.90;;;;;;5056870;28;20104;-75
2023/08/07 04:57:27;;;;;;;9.93;2.92;;;10.40;99.90;;;;;;5056364;28;20029;-75
2023/08/07 04:59:53;;;;;;;13.23;2.40;;;10.30;99.90;;;;;;5056567;28;20159;-76
2023/08/07 05:02:19;;;;;;;8.73;2.55;;;10.20;99.90;;;;;;5056768;28;20031;-76
2023/08/07 05:04:45;;;;;;;9.40;2.88;;;10.20;99.90;;;;;;5056814;28;20029;-75
2023/08/07 05:07:11;;;;;;;12.45;3.88;;;10.20;99.90;;;;;;5056522;28;20021;-75
2023/08/07 05:09:36;;;;;;;6.50;2.55;;;10.20;99.90;;;;;;5056842;28;20362;-76
2023/08/07 05:12:02;;;;;;;13.43;2.70;;;10.10;99.90;;;;;;5056617;28;20100;-73
2023/08/07 05:14:29;;;;;;;8.07;3.15;;;10.10;99.90;;;;;;5056185;28;20477;-75
2023/08/07 05:16:55;;;;;;;8.88;2.42;;;10.10;99.90;;;;;;5056540;28;20043;-77
2023/08/07 05:19:21;;;;;;;6.55;2.20;;;10.10;99.90;;;;;;5055645;28;20426;-76
2023/08/07 05:21:50;;;;;;;5.97;2.60;;;10.10;99.90;;;;;;5054874;28;20373;-74
2023/08/07 05:24:17;;;;;;;6.15;2.42;;;10.10;99.90;;;;;;5054396;28;20119;-75
2023/08/07 05:26:42;;;;;;;10.57;3.00;;;10.10;99.90;;;;;;5054880;28;20090;-75
2023/08/07 05:29:08;;;;;;;9.82;2.50;;;10.10;99.90;;;;;;5056583;28;20389;-77
2023/08/07 05:31:34;;;;;;;16.55;3.35;;;10.10;99.90;;;;;;5056272;28;20361;-76
2023/08/07 05:33:59;;;;;;;6.15;2.83;;;10.10;99.90;;;;;;5055136;28;20049;-73
2023/08/07 05:36:25;;;;;;;9.38;2.72;;;10.10;99.90;;;;;;5056221;28;20472;-74
2023/08/07 05:38:54;;;;;;;9.02;2.60;;;10.10;99.90;;;;;;5056121;28;20047;-74
2023/08/07 05:41:20;;;;;;;10.98;2.88;;;10.10;99.90;;;;;;5054537;28;20098;-75
2023/08/07 05:43:46;;;;;;;7.30;3.10;;;10.20;99.90;;;;;;5056271;28;20021;-75
2023/08/07 05:46:11;;;;;;;12.18;3.00;;;10.20;99.90;;;;;;5056043;28;20367;-74
2023/08/07 05:48:37;;;;;;;9.52;2.50;;;10.20;99.90;;;;;;5055097;28;20043;-75
2023/08/07 05:51:02;;;;;;;10.73;3.00;;;10.20;99.90;;;;;;5055703;28;20033;-73
2023/08/07 05:53:28;;;;;;;8.55;2.53;;;10.30;99.90;;;;;;5055887;28;20362;-74
2023/08/07 05:55:55;;;;;;;9.05;3.30;;;10.30;99.90;;;;;;5055520;28;20028;-74
2023/08/07 05:58:21;;;;;;;9.65;2.75;;;10.30;99.90;;;;;;5055558;28;20033;-74
2023/08/07 06:00:46;;;;;;;12.80;2.50;;;10.50;99.90;;;;;;5055546;28;20028;-77
2023/08/07 06:03:12;;;;;;;8.35;2.70;;;10.50;99.90;;;;;;5055691;28;20025;-73
2023/08/07 06:05:38;;;;;;;8.13;2.40;;;10.50;99.90;;;;;;5055445;28;20028;-76
2023/08/07 06:08:04;;;;;;;10.73;2.53;;;10.50;99.90;;;;;;5055801;28;20047;-73
2023/08/07 06:10:29;;;;;;;5.65;2.40;;;10.50;99.90;;;;;;5055606;28;20366;-74
2023/08/07 06:12:55;;;;;;;8.20;2.95;;;10.50;99.90;;;;;;5055133;28;20028;-73
2023/08/07 06:15:21;;;;;;;12.10;2.70;;;10.50;99.90;;;;;;5055267;28;20507;-73
2023/08/07 06:17:46;;;;;;;14.07;2.80;;;10.40;99.90;;;;;;5055696;28;20033;-73
2023/08/07 06:20:14;;;;;;;8.65;2.60;;;10.40;99.90;;;;;;5053961;28;20021;-74
2023/08/07 06:22:40;;;;;;;8.88;2.50;;;10.50;99.90;;;;;;5055116;28;20016;-74
2023/08/07 06:25:06;;;;;;;6.85;2.60;;;10.40;99.90;;;;;;5055166;28;20021;-74
2023/08/07 06:27:32;;;;;;;7.35;2.50;;;10.40;99.90;;;;;;5055022;28;20104;-74
2023/08/07 06:29:58;;;;;;;16.05;2.88;;;10.50;99.90;;;;;;5055816;28;20108;-74
2023/08/07 06:32:26;;;;;;;8.45;2.45;;;10.50;99.90;;;;;;5054356;28;20027;-75
2023/08/07 06:34:52;;;;;;;8.57;2.80;;;10.50;99.90;;;;;;5055113;28;20357;-74
2023/08/07 06:37:18;;;;;;;7.43;2.45;;;10.50;99.90;;;;;;5055006;28;20025;-74
2023/08/07 06:39:43;;;;;;;11.52;3.45;;;10.60;99.90;;;;;;5055296;28;20032;-73
2023/08/07 06:42:09;;;;;;;4.78;2.03;;;10.60;99.90;;;;;;5054528;28;20029;-74
2023/08/07 06:44:35;;;;;;;10.35;2.53;;;10.50;99.90;;;;;;5053697;28;20159;-73
2023/08/07 06:47:00;;;;;;;9.43;2.78;;;10.60;99.90;;;;;;5054836;28;20020;-73
2023/08/07 06:49:26;;;;;;;8.23;2.30;;;10.60;99.90;;;;;;5054602;28;20131;-74
2023/08/07 06:51:52;;;;;;;10.40;2.67;;;10.70;99.90;;;;;;5053294;28;20029;-74
2023/08/07 06:54:18;;;;;;;8.48;2.67;;;10.70;99.90;;;;;;5054707;28;20608;-74
2023/08/07 06:56:44;;;;;;;6.40;2.33;;;10.70;99.90;;;;;;5055056;28;20025;-73
2023/08/07 06:59:10;;;;;;;7.32;2.40;;;10.80;99.90;;;;;;5054453;28;20108;-74
2023/08/07 07:01:36;;;;;;;7.53;2.67;;;10.80;99.90;;;;;;5054438;28;20092;-75
2023/08/07 07:04:01;;;;;;;10.27;2.80;;;10.90;99.90;;;;;;5054326;28;20021;-74
2023/08/07 07:06:27;;;;;;;7.43;2.58;;;11.00;99.90;;;;;;5054241;28;20027;-75
2023/08/07 07:08:55;;;;;;;5.55;2.50;;;11.10;99.90;;;;;;5053914;28;20025;-74
2023/08/07 07:11:24;;;;;;;9.77;2.70;;;11.30;99.90;;;;;;5054203;28;20028;-75
2023/08/07 07:13:50;;;;;;;7.05;2.35;;;11.40;99.90;;;;;;5054139;28;20079;-74
2023/08/07 07:16:21;;;;;;;5.95;2.50;;;11.60;99.90;;;;;;5054357;28;20032;-76
2023/08/07 07:18:47;;;;;;;9.70;2.85;;;11.80;99.90;;;;;;5054157;28;20032;-74
2023/08/07 07:21:13;;;;;;;7.90;1.88;;;12.00;99.90;;;;;;5052575;28;20040;-77
2023/08/07 07:23:39;;;;;;;7.00;2.20;;;12.10;99.90;;;;;;5054093;28;20041;-76
2023/08/07 07:26:04;;;;;;;9.25;2.50;;;12.30;99.90;;;;;;5054184;28;20068;-75
2023/08/07 07:28:30;;;;;;;6.65;2.22;;;12.30;99.90;;;;;;5054221;28;20055;-75
2023/08/07 07:30:56;;;;;;;8.00;2.55;;;12.20;99.90;;;;;;5053787;28;20070;-75
2023/08/07 07:33:21;;;;;;;12.88;2.40;;;12.30;99.90;;;;;;5053884;28;20096;-75
2023/08/07 07:35:47;;;;;;;6.95;2.13;;;12.30;99.90;;;;;;5053495;28;20025;-75
2023/08/07 07:38:13;;;;;;;9.00;2.28;;;12.30;99.90;;;;;;5053820;28;20032;-74
2023/08/07 07:40:39;;;;;;;7.85;2.50;;;12.40;99.90;;;;;;5053770;28;20024;-74
2023/08/07 07:43:05;;;;;;;11.52;2.53;;;12.50;99.90;;;;;;5053763;28;20017;-74
2023/08/07 07:45:30;;;;;;;9.02;2.28;;;12.60;99.90;;;;;;5053611;28;20083;-76
2023/08/07 07:47:56;;;;;;;12.32;2.75;;;12.70;99.90;;;;;;5052906;28;20021;-75
2023/08/07 07:50:22;;;;;;;16.88;2.38;;;12.70;99.90;;;;;;5054275;28;20032;-75
2023/08/07 07:52:47;;;;;;;5.35;1.80;;;12.70;99.90;;;;;;5053371;28;20021;-74
2023/08/07 07:55:13;;;;;;;4.88;1.92;;;12.70;99.90;;;;;;5053750;28;20099;-72
2023/08/07 07:57:40;;;;;;;10.43;1.67;;;12.80;99.90;;;;;;5053678;28;20453;-72
2023/08/07 08:00:10;;;;;;;3.70;1.65;;;12.80;99.90;;;;;;5053480;28;20120;-71
2023/08/07 08:02:40;;;;;;;5.75;1.92;;;12.80;99.90;;;;;;5053456;28;20020;-72
2023/08/07 08:05:06;;;;;;;;;;;12.80;99.90;;;;;;5054465;28;20028;-75
2023/08/07 08:07:34;;;;;;;5.72;1.63;;;12.80;99.90;;;;;;5053558;28;19900;-71
2023/08/07 08:10:00;;;;;;;5.13;1.67;;;13.60;99.90;;;;;;5054596;28;20373;-71
2023/08/07 08:12:26;;;;;;;8.65;1.60;;;12.60;99.90;;;;;;5054828;28;20446;-70
2023/08/07 08:14:51;;;;;;;3.38;1.48;;;12.60;99.90;;;;;;5053550;28;20075;-70
2023/08/07 08:17:17;;;;;;;5.38;1.75;;;12.50;99.90;;;;;;5051919;28;20024;-70
2023/08/07 08:19:43;;;;;;;5.15;1.50;;;12.60;99.90;;;;;;5053261;28;20107;-70
2023/08/07 08:22:09;;;;;;;8.63;1.38;;;12.70;99.90;;;;;;5052144;28;20017;-71
2023/08/07 08:24:35;;;;;;;4.68;1.80;;;12.90;99.90;;;;;;5053944;28;20362;-70
2023/08/07 08:27:01;;;;;;;7.05;1.80;;;12.90;99.90;;;;;;5053018;28;20543;-70
2023/08/07 08:29:28;;;;;;;6.75;1.83;;;12.80;99.90;;;;;;5053771;28;20052;-70
2023/08/07 08:31:55;;;;;;;7.38;1.58;;;12.80;99.90;;;;;;5053193;28;20357;-71
2023/08/07 08:34:21;;;;;;;10.23;2.47;;;12.80;99.90;;;;;;5052982;28;20090;-70
2023/08/07 08:36:47;;;;;;;5.80;2.00;;;12.90;99.90;;;;;;5053010;28;20112;-71
2023/08/07 08:39:13;;;;;;;4.93;1.80;;;12.90;99.90;;;;;;5052244;28;20021;-71
2023/08/07 08:41:41;;;;;;;5.65;2.00;;;12.80;99.90;;;;;;5052913;28;20113;-71
2023/08/07 08:44:09;;;;;;;7.82;1.90;;;12.70;99.90;;;;;;5053229;28;20552;-70
2023/08/07 08:46:35;;;;;;;6.43;1.67;;;12.60;99.90;;;;;;5053099;28;20046;-70
2023/08/07 08:49:03;;;;;;;5.40;1.60;;;12.60;99.90;;;;;;5053006;28;20051;-71
2023/08/07 08:51:30;;;;;;;9.68;1.50;;;12.60;99.90;;;;;;5053300;28;20033;-71
2023/08/07 08:53:56;;;;;;;10.15;1.70;;;12.60;99.90;;;;;;5053368;28;20096;-71
2023/08/07 08:56:22;;;;;;;9.57;1.83;;;12.60;99.90;;;;;;5053108;28;20047;-72
2023/08/07 08:58:50;;;;;;;5.05;2.05;;;12.60;99.90;;;;;;5053254;28;20017;-71
2023/08/07 09:01:18;;;;;;;8.75;2.33;;;12.50;99.90;;;;;;5056539;28;20024;-71
2023/08/07 09:03:45;;;;;;;9.52;2.05;;;12.40;99.90;;;;;;5056635;28;20060;-71
2023/08/07 09:06:12;;;;;;;5.68;1.95;;;12.40;99.90;;;;;;5056620;28;20472;-71
2023/08/07 09:08:42;;;;;;;4.95;1.88;;;12.50;99.90;;;;;;5056508;28;20442;-71
2023/08/07 09:11:08;;;;;;;7.85;1.95;;;12.70;99.90;;;;;;5056454;28;20032;-71
2023/08/07 09:13:34;;;;;;;7.70;1.73;;;12.80;99.90;;;;;;5056632;28;20036;-71
2023/08/07 09:16:01;;;;;;;4.78;1.95;;;12.90;99.90;;;;;;5055119;28;20036;-70
2023/08/07 09:18:27;;;;;;;4.53;2.00;;;12.90;99.90;;;;;;5056094;28;20090;-71
2023/08/07 09:20:53;;;;;;;5.70;1.73;;;13.00;99.90;;;;;;5056629;28;20028;-72
2023/08/07 09:23:19;;;;;;;3.47;1.48;;;13.10;99.90;;;;;;5056022;28;20106;-71
2023/08/07 09:25:45;;;;;;;6.03;1.67;;;13.10;99.90;;;;;;5056211;28;20074;-71
2023/08/07 09:28:12;;;;;;;5.05;1.70;;;13.20;99.90;;;;;;5056763;28;20029;-72
2023/08/07 09:30:37;;;;;;;4.15;1.98;;;13.20;99.90;;;;;;5056283;28;20039;-72
2023/08/07 09:33:03;;;;;;;6.15;1.92;;;13.30;99.90;;;;;;5056108;28;20029;-70
2023/08/07 09:35:31;;;;;;;4.50;1.95;;;13.50;99.90;;;;;;5055798;28;20029;-70
2023/08/07 09:37:58;;;;;;;5.80;1.67;;;13.50;99.90;;;;;;5056186;28;20032;-70
2023/08/07 09:40:23;;;;;;;4.07;1.73;;;13.50;99.90;;;;;;5056295;28;20021;-70
2023/08/07 09:42:53;;;;;;;5.50;1.60;;;13.50;99.90;;;;;;5055738;28;20148;-73
2023/08/07 09:45:20;;;;;;;4.40;1.80;;;13.60;99.90;;;;;;5055513;28;20067;-71
2023/08/07 09:47:46;;;;;;;7.35;2.08;;;13.60;99.90;;;;;;5055480;28;20276;-73
2023/08/07 09:50:17;;;;;;;3.10;1.50;;;13.50;99.90;;;;;;5055824;28;20454;-72
2023/08/07 09:52:47;;;;;;;6.70;1.45;;;13.60;99.90;;;;;;5056051;28;20021;-73
2023/08/07 09:55:13;;;;;;;4.60;1.60;;;13.70;99.90;;;;;;5056454;28;20048;-71
2023/08/07 09:57:38;;;;;;;4.68;1.70;;;13.80;99.90;;;;;;5055788;28;20025;-74
2023/08/07 10:00:11;;;;;;;3.33;1.50;;;13.70;99.90;;;;;;5055986;28;20426;-72
2023/08/07 10:02:37;;;;;;;4.88;1.65;;;13.80;99.90;;;;;;5056183;28;20405;-72
2023/08/07 10:05:05;;;;;;;3.53;1.27;;;13.90;99.90;;;;;;5055553;28;20420;-75
2023/08/07 10:07:32;;;;;;;4.25;1.55;;;13.70;99.90;;;;;;5055561;28;20040;-72
2023/08/07 10:09:59;;;;;;;7.40;1.80;;;13.70;99.90;;;;;;5054511;28;20056;-72
2023/08/07 10:12:26;;;;;;;7.82;1.52;;;13.80;99.90;;;;;;5055426;28;20025;-76
2023/08/07 10:14:54;;;;;;;3.13;1.35;;;13.90;99.90;;;;;;5055931;28;20103;-73
2023/08/07 10:17:22;;;;;;;4.35;1.40;;;14.00;99.90;;;;;;5055263;28;20579;-71
2023/08/07 10:19:48;;;;;;;2.58;1.40;;;14.00;99.90;;;;;;5055347;28;20047;-71
2023/08/07 10:22:15;;;;;;;3.38;1.75;;;14.40;99.90;;;;;;5055205;28;20056;-71
2023/08/07 10:24:44;;;;;;;6.30;1.42;;;14.80;99.90;;;;;;5055136;28;20028;-71
2023/08/07 10:27:12;;;;;;;4.95;1.73;;;15.20;99.90;;;;;;5055192;28;20108;-72
2023/08/07 10:29:39;;;;;;;2.95;1.13;;;15.10;99.90;;;;;;5055216;28;20047;-76
2023/08/07 10:32:07;;;;;;;4.30;1.30;;;15.20;99.90;;;;;;5055062;28;20100;-72
2023/08/07 10:34:37;;;;;;;5.82;1.55;;;15.10;99.90;;;;;;5054139;28;20029;-73
2023/08/07 10:37:07;;;;;;;3.33;1.55;;;15.00;99.90;;;;;;5054728;28;20035;-72
2023/08/07 10:39:32;;;;;;;3.10;1.10;;;15.10;99.90;;;;;;5054907;28;20318;-73
2023/08/07 10:41:58;;;;;;;5.82;1.48;;;15.00;99.90;;;;;;5054608;28;20013;-72
2023/08/07 10:44:31;;;;;;;5.13;1.27;;;14.80;99.90;;;;;;5054818;28;20029;-72
2023/08/07 10:46:57;;;;;;;4.47;1.48;;;14.70;99.90;;;;;;5054481;28;20017;-73
2023/08/07 10:49:37;;;;;;;4.93;1.25;;;14.80;99.90;;;;;;5054242;28;20047;-72
2023/08/07 10:52:14;;;;;;;4.85;1.60;;;15.00;99.90;;;;;;5054707;28;20049;-72
2023/08/07 10:54:49;;;;;;;3.75;1.20;;;15.30;99.90;;;;;;5054778;28;20025;-72
2023/08/07 10:57:16;;;;;;;4.05;1.50;;;15.40;99.90;;;;;;5054472;28;20453;-71
2023/08/07 10:59:49;;;;;;;5.05;1.60;;;15.60;99.90;;;;;;5054453;28;20025;-72
2023/08/07 11:02:26;;;;;;;1.95;1.15;;;15.80;99.90;;;;;;5053634;28;20331;-71
2023/08/07 11:04:53;;;;;;;3.50;1.40;;;16.00;99.90;;;;;;5054045;28;20459;-70
2023/08/07 11:07:30;;;;;;;6.63;1.38;;;15.80;99.90;;;;;;5054560;28;20327;-71
2023/08/07 11:09:56;;;;;;;2.65;1.35;;;15.60;99.90;;;;;;5054363;28;20070;-71
2023/08/07 11:12:26;;;;;;;9.02;1.63;;;15.80;99.90;;;;;;5054226;28;20021;-75
2023/08/07 11:14:58;;;;;;;8.27;1.30;;;16.00;99.90;;;;;;5053807;28;20090;-72
2023/08/07 11:17:28;;;;;;;6.38;1.45;;;16.10;99.90;;;;;;5054418;28;20032;-71
2023/08/07 11:19:55;;;;;;;2.10;1.25;;;15.90;99.90;;;;;;5054358;28;20029;-73
2023/08/07 11:22:20;;;;;;;3.40;1.33;;;15.50;99.90;;;;;;5053248;28;20163;-73
2023/08/07 11:24:46;;;;;;;4.00;1.20;;;15.60;99.90;;;;;;5053962;28;20076;-70
2023/08/07 11:27:12;;;;;;;4.45;1.30;;;16.30;99.90;;;;;;5054362;28;20025;-75
2023/08/07 11:29:38;;;;;;;3.53;1.75;;;16.50;99.90;;;;;;5053905;28;20052;-71
2023/08/07 11:32:05;;;;;;;4.47;1.40;;;16.50;99.90;;;;;;5053908;28;20044;-72
2023/08/07 11:34:31;;;;;;;3.03;1.60;;;16.30;99.90;;;;;;5053366;28;20079;-71
2023/08/07 11:36:57;;;;;;;5.22;1.60;;;15.90;99.90;;;;;;5053997;28;20369;-71
2023/08/07 11:39:24;;;;;;;4.57;1.70;;;15.60;99.90;;;;;;5053756;28;20021;-72
2023/08/07 11:41:52;;;;;;;3.63;1.55;;;15.50;99.90;;;;;;5053585;28;20354;-74
2023/08/07 11:44:18;;;;;;;7.65;1.90;;;15.50;99.90;;;;;;5052429;28;20478;-71
2023/08/07 11:46:44;;;;;;;4.88;1.75;;;15.50;99.90;;;;;;5053891;28;20024;-72
2023/08/07 11:49:10;;;;;;;4.72;1.60;;;15.40;99.90;;;;;;5053412;28;20132;-71
2023/08/07 11:51:36;;;;;;;7.40;1.67;;;15.20;99.90;;;;;;5053587;28;20111;-71
2023/08/07 11:54:03;;;;;;;4.15;1.75;;;15.00;99.90;;;;;;5053293;28;20418;-70
2023/08/07 11:56:29;;;;;;;4.72;1.88;;;14.90;99.90;;;;;;5053396;28;20484;-74
2023/08/07 11:58:57;;;;;;;6.13;1.80;;;14.80;99.90;;;;;;5053742;28;20104;-72
2023/08/07 12:01:24;;;;;;;3.85;1.40;;;14.70;99.90;;;;;;5053012;28;20029;-71
2023/08/07 12:04:07;;;;;;;7.07;1.70;;;14.60;99.90;;;;;;5051936;28;20029;-72
2023/08/07 12:06:35;;;;;;;4.57;1.90;;;14.70;99.90;;;;;;5053359;28;20021;-72
2023/08/07 12:09:01;;;;;;;5.05;1.63;;;14.80;99.90;;;;;;5053428;28;20339;-73
2023/08/07 12:11:29;;;;;;;3.78;1.70;;;14.90;99.90;;;;;;5053344;28;20051;-72
2023/08/07 12:13:55;;;;;;;4.68;2.10;;;14.90;99.90;;;;;;5052998;28;20035;-74
2023/08/07 12:16:21;;;;;;;5.10;1.58;;;14.90;99.90;;;;;;5053183;28;20035;-72
2023/08/07 12:18:51;;;;;;;8.85;1.90;;;14.90;99.90;;;;;;5052933;28;20028;-71
2023/08/07 12:21:20;;;;;;;5.28;1.60;;;15.10;99.90;;;;;;5053607;28;20030;-70
2023/08/07 12:23:48;;;;;;;6.40;1.67;;;15.40;99.90;;;;;;5053296;28;20446;-74
2023/08/07 12:26:15;;;;;;;4.45;1.52;;;15.60;99.90;;;;;;5053720;28;20107;-75
2023/08/07 12:28:41;;;;;;;6.82;1.83;;;15.50;99.90;;;;;;5051915;28;20021;-71
2023/08/07 12:31:06;;;;;;;4.80;1.90;;;15.70;99.90;;;;;;5053443;28;20028;-73
2023/08/07 12:33:33;;;;;;;4.75;1.60;;;15.50;99.90;;;;;;5053800;28;20079;-72
2023/08/07 12:35:59;;;;;;;4.15;1.60;;;15.60;99.90;;;;;;5056788;28;20035;-69
2023/08/07 12:38:25;;;;;;;13.55;1.63;;;15.30;99.90;;;;;;5057073;28;20075;-74
2023/08/07 12:40:51;;;;;;;3.88;2.13;;;15.10;99.90;;;;;;5057116;28;20028;-72
2023/08/07 12:43:17;;;;;;;7.68;1.80;;;14.90;99.90;;;;;;5057002;28;20445;-71